createdAt,value
2017-11-23T00:02:14.734Z,28.93
2017-11-23T00:04:42.090Z,33.40
2017-11-23T00:07:09.401Z,24.73
2017-11-23T00:09:37.056Z,24.30
2017-11-23T00:12:04.757Z,31.23
2017-11-23T00:14:32.108Z,28.70
2017-11-23T00:16:59.546Z,26.40
2017-11-23T00:19:27.199Z,22.73
2017-11-23T00:21:54.835Z,24.80
2017-11-23T00:24:22.526Z,27.93
2017-11-23T00:26:50.166Z,25.53
2017-11-23T00:29:17.520Z,27.10
2017-11-23T00:31:44.833Z,26.13
2017-11-23T00:34:12.642Z,23.23
2017-11-23T00:36:39.973Z,23.67
2017-11-23T00:39:07.374Z,18.60
2017-11-23T00:41:35.011Z,25.40
2017-11-23T00:44:02.445Z,23.70
2017-11-23T00:46:29.832Z,26.17
2017-11-23T00:48:57.349Z,25.13
2017-11-23T00:51:24.710Z,21.73
2017-11-23T00:53:52.440Z,24.67
2017-11-23T00:56:20.146Z,21.03
2017-11-23T00:58:47.874Z,22.00
2017-11-23T01:01:15.220Z,26.30
2017-11-23T01:03:42.833Z,19.03
2017-11-23T01:06:10.174Z,23.27
2017-11-23T01:08:37.558Z,31.20
2017-11-23T01:11:05.222Z,26.63
2017-11-23T01:13:32.926Z,22.60
2017-11-23T01:16:00.285Z,23.53
2017-11-23T01:18:27.673Z,22.60
2017-11-23T01:20:55.083Z,21.90
2017-11-23T01:23:22.414Z,20.60
2017-11-23T01:25:50.070Z,23.70
2017-11-23T01:28:17.778Z,22.13
2017-11-23T01:30:45.639Z,22.90
2017-11-23T01:33:12.941Z,23.00
2017-11-23T01:35:40.714Z,21.83
2017-11-23T01:38:08.367Z,18.87
2017-11-23T01:40:35.747Z,25.53
2017-11-23T01:43:03.379Z,18.93
2017-11-23T01:45:30.723Z,20.80
2017-11-23T01:47:58.490Z,17.93
2017-11-23T01:50:26.176Z,21.20
2017-11-23T01:52:53.816Z,19.03
2017-11-23T01:55:21.671Z,16.37
2017-11-23T01:57:49.347Z,19.17
2017-11-23T02:00:16.698Z,18.27
2017-11-23T02:02:44.085Z,17.43
2017-11-23T02:05:11.754Z,16.63
2017-11-23T02:07:39.370Z,19.27
2017-11-23T02:10:06.711Z,16.63
2017-11-23T02:12:34.104Z,17.10
2017-11-23T02:15:01.432Z,16.30
2017-11-23T02:17:28.799Z,15.50
2017-11-23T02:19:56.147Z,18.13
2017-11-23T02:22:23.468Z,14.77
2017-11-23T02:24:50.783Z,14.37
2017-11-23T02:27:18.395Z,14.60
2017-11-23T02:29:45.922Z,16.03
2017-11-23T02:32:13.250Z,18.13
2017-11-23T02:34:40.903Z,12.60
2017-11-23T02:37:08.241Z,16.50
2017-11-23T02:39:35.697Z,12.60
2017-11-23T02:42:03.389Z,11.73
2017-11-23T02:44:30.740Z,9.80
2017-11-23T02:46:58.413Z,12.73
2017-11-23T02:49:26.839Z,12.10
2017-11-23T02:51:54.577Z,12.77
2017-11-23T02:54:22.832Z,14.20
2017-11-23T02:56:50.469Z,13.63
2017-11-23T02:59:17.767Z,15.77
2017-11-23T03:01:45.092Z,16.60
2017-11-23T03:04:12.723Z,19.73
2017-11-23T03:06:40.084Z,15.53
2017-11-23T03:09:07.406Z,12.13
2017-11-23T03:11:35.144Z,14.33
2017-11-23T03:14:02.772Z,14.27
2017-11-23T03:16:30.122Z,16.30
2017-11-23T03:18:57.423Z,20.13
2017-11-23T03:21:24.912Z,16.97
2017-11-23T03:23:52.582Z,12.57
2017-11-23T03:26:20.263Z,16.50
2017-11-23T03:28:47.946Z,12.40
2017-11-23T03:31:15.599Z,12.50
2017-11-23T03:33:42.906Z,15.60
2017-11-23T03:36:10.242Z,15.13
2017-11-23T03:38:37.935Z,12.80
2017-11-23T03:41:05.630Z,13.70
2017-11-23T03:43:32.962Z,17.37
2017-11-23T03:46:00.291Z,21.13
2017-11-23T03:48:27.980Z,11.90
2017-11-23T03:50:55.315Z,16.07
2017-11-23T03:53:22.891Z,12.33
2017-11-23T03:55:50.246Z,10.93
2017-11-23T03:58:17.898Z,16.77
2017-11-23T04:00:45.570Z,11.40
2017-11-23T04:03:12.908Z,11.50
2017-11-23T04:05:40.305Z,12.60
2017-11-23T04:08:07.954Z,11.70
2017-11-23T04:10:35.744Z,19.30
2017-11-23T04:13:03.078Z,12.03
2017-11-23T04:15:30.715Z,14.20
2017-11-23T04:17:58.070Z,12.53
2017-11-23T04:20:25.375Z,12.70
2017-11-23T04:22:52.751Z,12.30
2017-11-23T04:25:20.446Z,15.47
2017-11-23T04:27:47.750Z,15.73
2017-11-23T04:30:15.448Z,13.50
2017-11-23T04:32:43.135Z,17.00
2017-11-23T04:35:10.770Z,13.80
2017-11-23T04:37:38.470Z,16.33
2017-11-23T04:40:06.193Z,19.10
2017-11-23T04:42:33.887Z,12.70
2017-11-23T04:45:01.527Z,14.30
2017-11-23T04:47:29.301Z,14.70
2017-11-23T04:49:56.607Z,13.73
2017-11-23T04:52:23.944Z,15.07
2017-11-23T04:54:51.578Z,18.07
2017-11-23T04:57:19.281Z,16.63
2017-11-23T04:59:46.594Z,14.40
2017-11-23T05:02:13.924Z,12.20
2017-11-23T05:04:41.579Z,13.00
2017-11-23T05:07:08.970Z,10.27
2017-11-23T05:09:36.695Z,13.60
2017-11-23T05:12:04.507Z,17.70
2017-11-23T05:14:32.130Z,13.60
2017-11-23T05:16:59.858Z,16.03
2017-11-23T05:19:27.171Z,13.53
2017-11-23T05:21:54.859Z,10.93
2017-11-23T05:24:22.483Z,11.67
2017-11-23T05:26:49.802Z,13.23
2017-11-23T05:29:17.178Z,14.30
2017-11-23T05:31:44.563Z,14.23
2017-11-23T05:34:12.215Z,10.57
2017-11-23T05:36:39.868Z,15.00
2017-11-23T05:39:07.209Z,17.73
2017-11-23T05:41:34.585Z,12.33
2017-11-23T05:44:02.265Z,14.60
2017-11-23T05:46:29.931Z,13.67
2017-11-23T05:48:57.575Z,16.57
2017-11-23T05:51:25.214Z,12.47
2017-11-23T05:53:52.590Z,13.87
2017-11-23T05:56:20.230Z,12.67
2017-11-23T05:58:47.556Z,11.67
2017-11-23T06:01:15.241Z,12.43
2017-11-23T06:03:42.586Z,12.60
2017-11-23T06:06:10.259Z,12.20
2017-11-23T06:08:37.959Z,13.40
2017-11-23T06:11:05.637Z,11.03
2017-11-23T06:13:33.265Z,11.00
2017-11-23T06:16:00.926Z,15.40
2017-11-23T06:18:28.651Z,15.00
2017-11-23T06:20:56.383Z,15.40
2017-11-23T06:23:24.219Z,13.73
2017-11-23T06:25:52.077Z,9.10
2017-11-23T06:28:19.449Z,12.23
2017-11-23T06:30:47.285Z,11.50
2017-11-23T06:33:14.610Z,11.27
2017-11-23T06:35:42.202Z,11.40
2017-11-23T06:38:10.088Z,12.00
2017-11-23T06:40:38.035Z,14.00
2017-11-23T06:43:06.058Z,9.33
2017-11-23T06:45:33.379Z,13.10
2017-11-23T06:48:01.245Z,14.40
2017-11-23T06:50:29.174Z,13.03
2017-11-23T06:52:56.586Z,11.63
2017-11-23T06:55:24.529Z,12.13
2017-11-23T06:57:51.863Z,10.83
2017-11-23T07:00:19.726Z,10.40
2017-11-23T07:02:47.058Z,14.07
2017-11-23T07:05:15.053Z,14.60
2017-11-23T07:07:42.952Z,11.23
2017-11-23T07:10:10.567Z,8.93
2017-11-23T07:12:38.454Z,12.23
2017-11-23T07:15:06.343Z,12.30
2017-11-23T07:17:39.958Z,15.30
2017-11-23T07:20:07.798Z,16.67
2017-11-23T07:22:35.114Z,12.70
2017-11-23T07:25:03.032Z,16.90
2017-11-23T07:27:30.939Z,10.50
2017-11-23T07:29:58.263Z,9.67
2017-11-23T07:32:26.190Z,11.57
2017-11-23T07:34:54.085Z,10.43
2017-11-23T07:37:21.748Z,14.47
2017-11-23T07:39:49.433Z,13.30
2017-11-23T07:42:16.743Z,14.00
2017-11-23T07:44:44.668Z,9.97
2017-11-23T07:47:12.003Z,11.70
2017-11-23T07:49:39.647Z,15.47
2017-11-23T07:52:07.301Z,11.17
2017-11-23T07:54:34.628Z,11.40
2017-11-23T07:57:02.344Z,12.20
2017-11-23T07:59:30.050Z,11.40
2017-11-23T08:01:57.774Z,13.90
2017-11-23T08:04:25.135Z,13.33
2017-11-23T08:06:52.820Z,8.97
2017-11-23T08:09:20.293Z,9.10
2017-11-23T08:11:47.593Z,14.03
2017-11-23T08:14:15.241Z,12.13
2017-11-23T08:16:42.893Z,8.20
2017-11-23T08:19:10.294Z,11.00
2017-11-23T08:21:37.928Z,12.47
2017-11-23T08:24:05.585Z,13.00
2017-11-23T08:26:33.222Z,10.70
2017-11-23T08:29:00.600Z,10.10
2017-11-23T08:31:28.230Z,9.50
2017-11-23T08:33:55.992Z,12.50
2017-11-23T08:36:23.660Z,13.00
2017-11-23T08:38:51.347Z,9.43
2017-11-23T08:41:18.993Z,8.60
2017-11-23T08:43:46.315Z,8.10
2017-11-23T08:46:14.024Z,14.03
2017-11-23T08:48:41.671Z,14.53
2017-11-23T08:51:08.999Z,12.80
2017-11-23T08:53:36.301Z,9.53
2017-11-23T08:56:04.028Z,12.77
2017-11-23T08:58:31.766Z,12.53
2017-11-23T09:01:03.029Z,9.83
2017-11-23T09:03:30.722Z,10.73
2017-11-23T09:05:58.039Z,10.17
2017-11-23T09:08:25.710Z,9.40
2017-11-23T09:10:53.411Z,10.00
2017-11-23T09:13:20.758Z,16.87
2017-11-23T09:15:48.427Z,13.90
2017-11-23T09:18:16.079Z,9.20
2017-11-23T09:20:43.401Z,11.40
2017-11-23T09:23:11.154Z,12.80
2017-11-23T09:25:38.862Z,12.67
2017-11-23T09:28:06.558Z,14.90
2017-11-23T09:30:33.911Z,12.60
2017-11-23T09:33:01.250Z,10.37
2017-11-23T09:35:29.100Z,15.63
2017-11-23T09:37:56.479Z,20.40
2017-11-23T09:40:24.227Z,14.20
2017-11-23T09:42:51.897Z,16.27
2017-11-23T09:45:19.548Z,12.17
2017-11-23T09:47:46.990Z,10.70
2017-11-23T09:50:14.423Z,8.50
2017-11-23T09:52:42.092Z,7.33
2017-11-23T09:55:09.416Z,10.47
2017-11-23T09:57:40.973Z,10.50
2017-11-23T10:00:08.685Z,9.43
2017-11-23T10:02:36.316Z,8.50
2017-11-23T10:05:03.722Z,10.37
2017-11-23T10:07:31.067Z,10.73
2017-11-23T10:09:58.707Z,8.97
2017-11-23T10:12:26.022Z,11.30
2017-11-23T10:14:53.747Z,11.40
2017-11-23T10:17:21.570Z,8.43
2017-11-23T10:19:48.951Z,9.20
2017-11-23T10:22:16.276Z,13.40
2017-11-23T10:24:43.594Z,9.20
2017-11-23T10:27:10.906Z,10.20
2017-11-23T10:29:38.267Z,9.47
2017-11-23T10:32:05.653Z,9.90
2017-11-23T10:34:33.378Z,7.70
2017-11-23T10:37:01.461Z,8.43
2017-11-23T10:39:29.114Z,7.97
2017-11-23T10:41:56.434Z,10.63
2017-11-23T10:44:23.807Z,6.70
2017-11-23T10:46:51.162Z,8.57
2017-11-23T10:49:18.727Z,6.63
2017-11-23T10:51:46.039Z,10.60
2017-11-23T10:54:13.373Z,6.87
2017-11-23T10:56:40.974Z,6.83
2017-11-23T10:59:08.317Z,6.97
2017-11-23T11:01:36.008Z,9.10
2017-11-23T11:04:03.411Z,8.03
2017-11-23T11:06:31.048Z,7.37
2017-11-23T11:08:58.671Z,6.97
2017-11-23T11:11:26.458Z,6.90
2017-11-23T11:13:53.772Z,12.13
2017-11-23T11:16:21.239Z,9.80
2017-11-23T11:18:48.775Z,9.80
2017-11-23T11:21:16.099Z,7.23
2017-11-23T11:23:43.847Z,8.03
2017-11-23T11:26:11.187Z,6.57
2017-11-23T11:28:38.848Z,9.37
2017-11-23T11:31:06.559Z,9.10
2017-11-23T11:33:34.180Z,11.57
2017-11-23T11:36:01.499Z,7.93
2017-11-23T11:38:29.182Z,13.53
2017-11-23T11:40:56.521Z,7.20
2017-11-23T11:43:24.193Z,8.20
2017-11-23T11:45:51.886Z,8.30
2017-11-23T11:48:19.179Z,8.17
2017-11-23T11:50:46.498Z,8.90
2017-11-23T11:53:14.260Z,10.20
2017-11-23T11:55:42.056Z,6.93
2017-11-23T11:58:09.651Z,5.73
2017-11-23T12:00:37.133Z,7.50
2017-11-23T12:03:04.478Z,8.57
2017-11-23T12:05:31.797Z,7.63
2017-11-23T12:07:59.474Z,7.67
2017-11-23T12:10:26.928Z,12.50
2017-11-23T12:12:54.613Z,5.37
2017-11-23T12:15:27.951Z,13.73
2017-11-23T12:18:02.375Z,13.13
2017-11-23T12:20:35.578Z,9.30
2017-11-23T12:23:08.926Z,9.10
2017-11-23T12:25:52.964Z,8.47
2017-11-23T12:28:26.162Z,9.07
2017-11-23T12:30:53.826Z,12.70
2017-11-23T12:33:21.458Z,11.10
2017-11-23T12:35:48.787Z,6.83
2017-11-23T12:38:16.100Z,7.33
2017-11-23T12:40:43.783Z,7.10
2017-11-23T12:43:11.194Z,6.47
2017-11-23T12:45:38.858Z,12.40
2017-11-23T12:48:06.172Z,10.53
2017-11-23T12:50:33.746Z,9.30
2017-11-23T12:53:01.423Z,8.20
2017-11-23T12:55:28.854Z,9.00
2017-11-23T12:57:56.158Z,12.27
2017-11-23T13:00:23.815Z,6.63
2017-11-23T13:02:51.218Z,4.90
2017-11-23T13:05:18.717Z,10.63
2017-11-23T13:07:46.089Z,6.27
2017-11-23T13:10:13.855Z,6.80
2017-11-23T13:12:41.194Z,8.43
2017-11-23T13:15:08.841Z,8.00
2017-11-23T13:17:36.522Z,7.43
2017-11-23T13:20:03.929Z,5.87
2017-11-23T13:22:31.313Z,7.43
2017-11-23T13:24:59.079Z,7.70
2017-11-23T13:27:26.771Z,7.23
2017-11-23T13:29:54.535Z,9.00
2017-11-23T13:32:22.186Z,11.00
2017-11-23T13:34:49.504Z,7.93
2017-11-23T13:37:17.215Z,8.47
2017-11-23T13:39:45.565Z,8.47
2017-11-23T13:42:12.892Z,7.43
2017-11-23T13:44:40.231Z,7.77
2017-11-23T13:47:07.572Z,6.70
2017-11-23T13:49:34.997Z,6.53
2017-11-23T13:52:02.475Z,6.90
2017-11-23T13:54:30.066Z,10.60
2017-11-23T13:56:57.417Z,7.30
2017-11-23T13:59:24.738Z,10.30
2017-11-23T14:01:52.079Z,8.57
2017-11-23T14:04:19.723Z,6.07
2017-11-23T14:06:47.042Z,6.17
2017-11-23T14:09:14.348Z,6.47
2017-11-23T14:11:41.663Z,6.90
2017-11-23T14:14:09.356Z,9.13
2017-11-23T14:16:36.674Z,8.73
2017-11-23T14:19:04.372Z,8.17
2017-11-23T14:21:31.812Z,6.80
2017-11-23T14:23:59.475Z,4.13
2017-11-23T14:26:26.886Z,5.63
2017-11-23T14:28:54.524Z,10.17
2017-11-23T14:31:21.907Z,8.00
2017-11-23T14:33:49.219Z,25.23
2017-11-23T14:36:16.569Z,34.53
2017-11-23T14:38:43.887Z,18.27
2017-11-23T14:41:11.345Z,14.93
2017-11-23T14:43:39.671Z,16.13
2017-11-23T14:46:07.013Z,7.30
2017-11-23T14:48:34.334Z,12.00
2017-11-23T14:51:01.738Z,8.97
2017-11-23T14:53:29.464Z,9.20
2017-11-23T14:55:57.159Z,13.63
2017-11-23T14:58:24.803Z,9.93
2017-11-23T15:00:52.523Z,19.77
2017-11-23T15:03:19.866Z,9.67
2017-11-23T15:05:47.182Z,6.87
2017-11-23T15:08:14.549Z,6.40
2017-11-23T15:10:42.008Z,10.00
2017-11-23T15:13:09.650Z,11.63
2017-11-23T15:15:36.979Z,12.27
2017-11-23T15:18:04.357Z,9.40
2017-11-23T15:20:32.115Z,11.40
2017-11-23T15:22:59.441Z,10.40
2017-11-23T15:25:27.043Z,13.17
2017-11-23T15:27:54.455Z,10.63
2017-11-23T15:30:22.149Z,9.13
2017-11-23T15:32:49.513Z,10.93
2017-11-23T15:35:16.811Z,6.60
2017-11-23T15:37:44.187Z,20.63
2017-11-23T15:40:11.858Z,17.90
2017-11-23T15:42:39.253Z,14.90
2017-11-23T15:45:06.989Z,13.67
2017-11-23T15:47:34.315Z,24.77
2017-11-23T15:50:01.632Z,23.23
2017-11-23T15:52:29.418Z,26.20
2017-11-23T15:54:56.737Z,17.97
2017-11-23T15:57:24.395Z,20.53
2017-11-23T15:59:51.694Z,18.47
2017-11-23T16:02:19.035Z,19.47
2017-11-23T16:04:46.703Z,14.93
2017-11-23T16:07:14.357Z,8.03
2017-11-23T16:09:41.974Z,8.00
2017-11-23T16:12:09.295Z,11.30
2017-11-23T16:14:37.055Z,10.73
2017-11-23T16:17:04.375Z,9.87
2017-11-23T16:19:31.718Z,12.33
2017-11-23T16:21:59.160Z,17.30
2017-11-23T16:24:26.495Z,11.30
2017-11-23T16:26:54.199Z,7.90
2017-11-23T16:29:21.922Z,8.27
2017-11-23T16:31:49.324Z,8.60
2017-11-23T16:34:16.633Z,7.80
2017-11-23T16:36:43.962Z,10.33
2017-11-23T16:39:11.285Z,10.47
2017-11-23T16:41:40.406Z,15.17
2017-11-23T16:44:27.534Z,13.10
2017-11-23T16:47:14.038Z,12.00
2017-11-23T16:49:44.343Z,13.93
2017-11-23T16:52:17.447Z,10.10
2017-11-23T16:54:50.919Z,9.40
2017-11-23T16:57:29.397Z,14.37
2017-11-23T17:00:16.567Z,10.50
2017-11-23T17:02:58.010Z,9.47
2017-11-23T17:05:31.318Z,9.00
2017-11-23T17:08:16.844Z,16.30
2017-11-23T17:10:50.015Z,8.00
2017-11-23T17:13:23.096Z,7.93
2017-11-23T17:15:56.415Z,7.40
2017-11-23T17:18:26.658Z,7.93
2017-11-23T17:20:54.323Z,8.17
2017-11-23T17:23:22.023Z,12.23
2017-11-23T17:25:49.656Z,13.87
2017-11-23T17:28:16.967Z,7.80
2017-11-23T17:30:44.291Z,13.47
2017-11-23T17:33:12.450Z,10.00
2017-11-23T17:35:40.171Z,8.63
2017-11-23T17:38:07.581Z,9.23
2017-11-23T17:40:35.319Z,7.20
2017-11-23T17:43:03.447Z,8.43
2017-11-23T17:45:30.875Z,13.50
2017-11-23T17:47:58.516Z,15.97
2017-11-23T17:50:25.829Z,8.53
2017-11-23T17:52:53.290Z,9.63
2017-11-23T17:55:20.975Z,8.70
2017-11-23T17:57:48.362Z,10.37
2017-11-23T18:00:15.976Z,8.57
2017-11-23T18:02:43.371Z,8.30
2017-11-23T18:05:11.022Z,7.43
2017-11-23T18:07:38.350Z,9.43
2017-11-23T18:10:05.646Z,8.70
2017-11-23T18:12:33.298Z,12.70
2017-11-23T18:15:00.955Z,10.77
2017-11-23T18:17:28.586Z,11.97
2017-11-23T18:19:55.966Z,9.23
2017-11-23T18:22:23.262Z,12.80
2017-11-23T18:24:50.592Z,14.63
2017-11-23T18:27:18.229Z,11.30
2017-11-23T18:29:45.556Z,7.17
2017-11-23T18:32:12.878Z,10.37
2017-11-23T18:34:40.226Z,10.57
2017-11-23T18:37:07.871Z,12.30
2017-11-23T18:39:35.519Z,17.83
2017-11-23T18:42:02.818Z,9.23
2017-11-23T18:44:30.138Z,7.07
2017-11-23T18:46:57.774Z,11.27
2017-11-23T18:49:25.550Z,8.20
2017-11-23T18:51:52.859Z,7.63
2017-11-23T18:54:20.179Z,7.23
2017-11-23T18:56:47.655Z,12.50
2017-11-23T18:59:14.985Z,9.37
2017-11-23T19:01:42.612Z,10.63
2017-11-23T19:04:10.391Z,9.00
2017-11-23T19:06:37.690Z,7.90
2017-11-23T19:09:05.014Z,6.73
2017-11-23T19:11:32.647Z,10.43
2017-11-23T19:14:00.483Z,8.83
2017-11-23T19:16:28.003Z,11.27
2017-11-23T19:18:55.652Z,10.20
2017-11-23T19:21:23.318Z,8.77
2017-11-23T19:23:50.970Z,11.00
2017-11-23T19:26:18.375Z,10.10
2017-11-23T19:28:45.699Z,9.47
2017-11-23T19:31:13.135Z,10.33
2017-11-23T19:33:40.450Z,14.20
2017-11-23T19:36:08.137Z,7.90
2017-11-23T19:38:35.867Z,8.33
2017-11-23T19:41:03.192Z,7.03
2017-11-23T19:43:30.929Z,9.40
2017-11-23T19:45:58.239Z,8.93
2017-11-23T19:48:25.562Z,9.03
2017-11-23T19:50:53.214Z,7.50
2017-11-23T19:53:20.905Z,12.67
2017-11-23T19:55:48.223Z,14.83
2017-11-23T19:58:15.857Z,11.50
2017-11-23T20:00:43.551Z,15.17
2017-11-23T20:03:10.874Z,8.50
2017-11-23T20:05:38.749Z,9.40
2017-11-23T20:08:06.223Z,10.00
2017-11-23T20:10:33.877Z,7.20
2017-11-23T20:13:01.197Z,10.00
2017-11-23T20:15:28.594Z,7.50
2017-11-23T20:17:56.238Z,9.87
2017-11-23T20:20:23.567Z,8.77
2017-11-23T20:22:50.955Z,10.47
2017-11-23T20:25:18.279Z,10.00
2017-11-23T20:27:45.650Z,7.33
2017-11-23T20:30:13.333Z,8.30
2017-11-23T20:32:40.642Z,7.97
2017-11-23T20:35:08.363Z,9.43
2017-11-23T20:37:36.011Z,9.60
2017-11-23T20:40:03.340Z,12.23
2017-11-23T20:42:30.725Z,9.47
2017-11-23T20:44:58.045Z,10.83
2017-11-23T20:47:25.342Z,9.00
2017-11-23T20:49:53.165Z,7.53
2017-11-23T20:52:20.554Z,13.43
2017-11-23T20:54:48.001Z,10.27
2017-11-23T20:57:15.298Z,8.50
2017-11-23T20:59:42.613Z,8.73
2017-11-23T21:02:09.952Z,8.03
2017-11-23T21:04:37.261Z,7.27
2017-11-23T21:07:04.955Z,10.37
2017-11-23T21:09:32.273Z,11.20
2017-11-23T21:11:59.590Z,9.30
2017-11-23T21:14:26.915Z,9.50
2017-11-23T21:16:54.574Z,7.70
2017-11-23T21:19:22.339Z,9.23
2017-11-23T21:21:50.205Z,7.60
2017-11-23T21:24:17.919Z,10.50
2017-11-23T21:26:45.536Z,11.60
2017-11-23T21:29:13.201Z,8.97
2017-11-23T21:31:40.505Z,8.37
2017-11-23T21:34:07.833Z,13.33
2017-11-23T21:36:35.465Z,6.40
2017-11-23T21:39:03.143Z,8.30
2017-11-23T21:41:30.437Z,8.73
2017-11-23T21:43:57.783Z,12.93
2017-11-23T21:46:25.388Z,7.20
2017-11-23T21:48:52.859Z,10.33
2017-11-23T21:51:20.173Z,9.60
2017-11-23T21:53:47.467Z,8.50
2017-11-23T21:56:14.783Z,15.43
2017-11-23T21:58:42.474Z,8.87
2017-11-23T22:01:10.170Z,8.90
2017-11-23T22:03:37.802Z,8.87
2017-11-23T22:06:05.122Z,7.83
2017-11-23T22:08:32.828Z,10.80
2017-11-23T22:11:00.169Z,9.20
2017-11-23T22:13:27.465Z,7.57
2017-11-23T22:15:55.100Z,8.13
2017-11-23T22:18:22.410Z,6.03
2017-11-23T22:20:50.121Z,9.23
2017-11-23T22:23:17.750Z,10.20
2017-11-23T22:25:45.429Z,8.30
2017-11-23T22:28:12.734Z,10.20
2017-11-23T22:30:40.058Z,13.00
2017-11-23T22:33:07.716Z,9.83
2017-11-23T22:35:35.379Z,6.97
2017-11-23T22:38:03.004Z,13.30
2017-11-23T22:40:30.685Z,7.73
2017-11-23T22:42:58.195Z,8.00
2017-11-23T22:45:26.369Z,10.50
2017-11-23T22:47:54.572Z,9.33
2017-11-23T22:50:22.308Z,9.40
2017-11-23T22:52:49.618Z,7.93
2017-11-23T22:55:16.962Z,10.60
2017-11-23T22:57:44.319Z,9.20
2017-11-23T23:00:11.625Z,8.63
2017-11-23T23:02:38.931Z,10.03
2017-11-23T23:05:06.600Z,10.37
2017-11-23T23:07:34.246Z,10.07
2017-11-23T23:10:01.564Z,8.80
2017-11-23T23:12:29.343Z,11.87
2017-11-23T23:14:57.038Z,13.53
2017-11-23T23:17:24.435Z,8.97
2017-11-23T23:19:51.756Z,8.53
2017-11-23T23:22:19.413Z,9.13
2017-11-23T23:24:46.784Z,11.60
2017-11-23T23:27:14.426Z,8.47
2017-11-23T23:29:42.121Z,15.90
2017-11-23T23:32:09.435Z,10.90
2017-11-23T23:34:36.740Z,10.77
2017-11-23T23:37:04.105Z,9.47
2017-11-23T23:39:31.780Z,9.83
2017-11-23T23:41:59.220Z,10.37
2017-11-23T23:44:26.995Z,9.20
2017-11-23T23:46:54.682Z,9.70
2017-11-23T23:49:22.012Z,11.17
2017-11-23T23:51:49.334Z,10.97
2017-11-23T23:54:16.690Z,12.97
2017-11-23T23:56:44.417Z,10.50
2017-11-23T23:59:12.052Z,8.53
